M/V MiSS Shirley — WDD9105 — position and weather

sailwx.info

Track history (hours):
 
Tides and Currents Weather Stations Pressure Air Temp Water Temp Dewpoint Dewpoint Depression Visibility Wind Speed Wind Dir Waves Ship Positions

M/V MiSS Shirley

Owner: Ingram Barge Company LLC, Nashville, TN. More information available from US FCC via Universal Licensing System and Coast Guard Vessel Documentation Center.

Last reported at 2018-May-15 14:14 UTC. Time now 2018-Jun-22 14:53 UTC.
Position N 38°37' W 090°11'.
Warning: this ship's position is 38 days out of date.

Length 20 m; draft 3.1 m.

Type: Towing. MMSI: 367306940.

Date/timePositionNaut miles runAvg speedWind from/ knotsBaromVisibWave heightAir tempDewpointWater temp
2018-May-15 14:14N 38°37' W 090°11'2 7.7
2018-May-15 14:00N 38°39' W 090°11'1 2.8
2018-May-15 13:30N 38°40' W 090°11'1 2.0
2018-May-15 13:00N 38°39' W 090°11'3 5.1
2018-May-15 12:29N 38°37' W 090°11'5 5.2
2018-May-15 11:33N 38°33' W 090°15'0 0.0
2018-May-15 11:30N 38°33' W 090°15'0 0.1
2018-May-15 10:42N 38°33' W 090°15'0 0.2
2018-May-15 10:30N 38°33' W 090°15'0 1.0
2018-May-15 10:00N 38°32' W 090°15'0 0.0
2018-May-15 09:30N 38°32' W 090°15'0 0.8
2018-May-15 09:00N 38°33' W 090°15'3 4.2
2018-May-15 08:20N 38°35' W 090°13'2 5.1
2018-May-15 08:00N 38°36' W 090°11'1 1.4
2018-May-15 07:30N 38°36' W 090°12'4 4.4
2018-May-15 06:34N 38°32' W 090°15'0 4.4
2018-May-15 06:28N 38°32' W 090°15'0 0.2
2018-May-15 05:54N 38°32' W 090°15'4 3.5
2018-May-15 04:39N 38°35' W 090°12'2 7.3
2018-May-15 04:22N 38°37' W 090°11'3 7.3
2018-May-15 04:00N 38°40' W 090°11'0 0.4
2018-May-15 03:30N 38°40' W 090°11'0 0.0
2018-May-15 03:00N 38°40' W 090°11'1 2.0
2018-May-15 02:29N 38°39' W 090°11'1 1.7
2018-May-15 01:58N 38°38' W 090°11'2 3.9
2018-May-15 01:26N 38°36' W 090°11'2 4.1
2018-May-15 00:57N 38°35' W 090°13'2 0.5
2018-May-14 20:19N 38°33' W 090°15'0 0.2
2018-May-14 20:00N 38°33' W 090°15'0 0.6
2018-May-14 19:30N 38°32' W 090°15'5 2.1
2018-May-14 17:12N 38°36' W 090°11'1 4.9
2018-May-14 16:57N 38°37' W 090°11'0 0.3
2018-May-14 16:29N 38°37' W 090°11'3 5.8
2018-May-14 16:00N 38°40' W 090°11'1 2.3
2018-May-14 15:30N 38°39' W 090°11'4 6.7
2018-May-14 14:59N 38°36' W 090°12'3 7.1
2018-May-14 14:30N 38°33' W 090°14'0 0.1
2018-May-14 13:36N 38°33' W 090°14'0 0.5
2018-May-14 13:30N 38°33' W 090°14'0 0.1
2018-May-14 12:59N 38°33' W 090°14'0 0.3
2018-May-14 12:30N 38°33' W 090°14'1 1.2
2018-May-14 11:59N 38°32' W 090°15'0 0.0
2018-May-14 11:30N 38°32' W 090°15'0 0.0
2018-May-14 11:00N 38°32' W 090°15'0 0.8
2018-May-14 10:29N 38°32' W 090°15'0 0.7
2018-May-14 10:00N 38°32' W 090°15'0 0.0
2018-May-14 09:30N 38°32' W 090°15'0 0.6
2018-May-14 08:55N 38°33' W 090°15'0 0.0
2018-May-14 08:30N 38°33' W 090°15'0 0.0
2018-May-14 07:58N 38°33' W 090°15'0 0.0
2018-May-14 07:30N 38°33' W 090°15'0 0.8
2018-May-14 07:00N 38°32' W 090°15'1 0.3
2018-May-14 05:19N 38°33' W 090°15'0 0.0
2018-May-14 05:00N 38°33' W 090°15'0 0.4
2018-May-14 04:14N 38°33' W 090°15'1 3.9
2018-May-14 03:55N 38°32' W 090°15'0 0.2
2018-May-14 03:29N 38°32' W 090°15'0 0.0
2018-May-14 02:14N 38°32' W 090°15'1 5.1
2018-May-14 01:57N 38°33' W 090°14'0 1.0
2018-May-14 01:27N 38°33' W 090°15'4 0.4
2018-May-13 15:38N 38°36' W 090°11'0 0.6
2018-May-13 15:30N 38°36' W 090°11'4 1.6
2018-May-13 12:55N 38°33' W 090°15'0 1.1
2018-May-13 12:28N 38°33' W 090°15'1 1.2
2018-May-13 11:16N 38°31' W 090°16'0 1.1
2018-May-13 10:55N 38°32' W 090°16'1 1.7
2018-May-13 10:30N 38°32' W 090°15'0 0.0
2018-May-13 10:00N 38°32' W 090°15'5 4.7
2018-May-13 09:00N 38°36' W 090°11'4 8.1
2018-May-13 08:30N 38°40' W 090°11'0 0.1
2018-May-13 08:00N 38°40' W 090°11'0 0.2
2018-May-13 07:29N 38°40' W 090°11'0 0.3
2018-May-13 07:00N 38°40' W 090°11'1 2.7
2018-May-13 06:30N 38°39' W 090°11'7 1.2
2018-May-13 00:48N 38°33' W 090°15'0 0.2
2018-May-12 22:22N 38°32' W 090°15'0 0.0
2018-May-12 21:57N 38°32' W 090°15'0 0.0
2018-May-12 21:30N 38°32' W 090°15'1 0.8
2018-May-12 20:34N 38°32' W 090°16'0 0.9
2018-May-12 20:19N 38°32' W 090°15'0 0.0
2018-May-12 19:35N 38°32' W 090°15'0 0.5
2018-May-12 19:30N 38°32' W 090°15'6 5.8
2018-May-12 18:28N 38°37' W 090°11'3 6.1
2018-May-12 17:56N 38°40' W 090°11'0 0.0
2018-May-12 17:30N 38°40' W 090°11'2 3.2
2018-May-12 17:00N 38°39' W 090°11'3 0.8
2018-May-12 13:54N 38°36' W 090°11'3 8.7
2018-May-12 13:30N 38°40' W 090°11'1 1.1
2018-May-12 13:00N 38°39' W 090°11'7 5.4
2018-May-12 11:44N 38°33' W 090°15'0 0.4
2018-May-12 11:29N 38°33' W 090°15'0 0.1
2018-May-12 10:58N 38°33' W 090°15'0 0.1
2018-May-12 06:28N 38°33' W 090°14'3 4.6
2018-May-12 05:50N 38°35' W 090°12'1 3.7
2018-May-12 05:30N 38°36' W 090°11'4 1.6
2018-May-12 03:01N 38°33' W 090°14'0 0.2
2018-May-12 02:59N 38°33' W 090°14'1 0.7
2018-May-12 01:55N 38°33' W 090°15'1 2.6
2018-May-12 01:27N 38°31' W 090°16'6 1.2
2018-May-11 20:36N 38°36' W 090°11'1 8.0
2018-May-11 20:31N 38°37' W 090°11'3 5.3
2018-May-11 20:00N 38°40' W 090°11'1 1.1
2018-May-11 19:27N 38°39' W 090°11'1 0.1
2018-May-11 13:37N 38°38' W 090°11'110.2
2018-May-11 13:30N 38°39' W 090°11'0 0.6
2018-May-11 13:00N 38°39' W 090°11'7 4.9
2018-May-11 11:36N 38°33' W 090°15'2 2.5
2018-May-11 10:56N 38°32' W 090°16'1 0.7
2018-May-11 09:31N 38°32' W 090°15'0 4.2
2018-May-11 09:25N 38°32' W 090°15'0 0.9
2018-May-11 08:58N 38°32' W 090°15'1 0.4
2018-May-11 05:29N 38°33' W 090°15'4 8.2
2018-May-11 04:58N 38°36' W 090°11'0 0.6
2018-May-11 04:30N 38°36' W 090°11'0 0.0
2018-May-11 03:58N 38°36' W 090°11'0 0.0
2018-May-11 03:30N 38°36' W 090°11'0 0.0
2018-May-11 03:01N 38°36' W 090°11'5 3.3
2018-May-11 01:36N 38°33' W 090°15'0 0.6
2018-May-11 01:24N 38°33' W 090°15'0 1.2
2018-May-11 00:59N 38°33' W 090°14'1 1.2
2018-May-11 00:30N 38°33' W 090°15'4 0.5
2018-May-10 16:13N 38°36' W 090°12'310.7
2018-May-10 15:58N 38°39' W 090°11'2 3.3
2018-May-10 15:28N 38°40' W 090°11'3 5.5
2018-May-10 15:00N 38°38' W 090°11'3 5.9
2018-May-10 14:30N 38°35' W 090°13'3 6.1
2018-May-10 13:59N 38°33' W 090°15'1 1.5
2018-May-10 13:30N 38°32' W 090°15'0 0.7
2018-May-10 13:00N 38°32' W 090°15'0 0.0
2018-May-10 12:30N 38°32' W 090°15'0 0.7
2018-May-10 12:00N 38°31' W 090°16'0 0.6
2018-May-10 11:26N 38°32' W 090°15'1 2.1
2018-May-10 11:01N 38°32' W 090°15'0 0.1
2018-May-10 10:30N 38°32' W 090°15'0 0.0
2018-May-10 10:01N 38°32' W 090°15'0 0.0
2018-May-10 09:30N 38°32' W 090°15'1 1.8
2018-May-10 09:01N 38°32' W 090°15'0 0.1
2018-May-10 08:24N 38°32' W 090°15'0 0.2
2018-May-10 08:00N 38°32' W 090°15'0 0.3
2018-May-10 07:30N 38°32' W 090°15'7 1.1
2018-May-10 01:09N 38°37' W 090°11'110.1
2018-May-10 01:00N 38°39' W 090°11'1 1.7
2018-May-10 00:30N 38°40' W 090°11'0 0.8
2018-May-10 00:00N 38°39' W 090°11'3 4.6
2018-May-09 23:25N 38°36' W 090°11'5 0.3
2018-May-09 07:54N 38°33' W 090°15'7 2.9
2018-May-09 05:26N 38°39' W 090°11'0 0.8
2018-May-09 04:56N 38°39' W 090°11'2 4.3
2018-May-09 04:22N 38°36' W 090°11'0 0.2
2018-May-09 03:59N 38°36' W 090°11'5 3.2
2018-May-09 02:34N 38°33' W 090°15'0 0.2
2018-May-09 02:22N 38°33' W 090°15'4 4.1
2018-May-09 01:20N 38°36' W 090°11'3 8.5
2018-May-09 01:00N 38°39' W 090°11'1 1.4
2018-May-09 00:30N 38°40' W 090°11'0 0.0
2018-May-09 00:00N 38°40' W 090°11'2 3.7
2018-May-08 23:30N 38°38' W 090°11'6 4.8
2018-May-08 22:21N 38°33' W 090°15'1 2.0
2018-May-08 22:00N 38°32' W 090°15'0 0.0
2018-May-08 21:30N 38°32' W 090°15'0 0.1
2018-May-08 20:53N 38°32' W 090°15'5 6.6
2018-May-08 20:13N 38°36' W 090°12'3 7.6
2018-May-08 19:50N 38°39' W 090°11'1 2.5
2018-May-08 19:30N 38°40' W 090°11'1 1.1
2018-May-08 19:00N 38°39' W 090°11'1 1.9
2018-May-08 18:20N 38°38' W 090°11'2 5.0
2018-May-08 17:59N 38°36' W 090°12'4 5.0
2018-May-08 17:11N 38°33' W 090°15'1 1.3
2018-May-08 16:41N 38°32' W 090°15'4 1.1
2018-May-08 12:50N 38°36' W 090°12'3 8.7
2018-May-08 12:30N 38°38' W 090°11'0 0.6
2018-May-08 12:00N 38°39' W 090°11'1 2.7
2018-May-08 11:30N 38°37' W 090°11'3 6.2
2018-May-08 11:00N 38°35' W 090°13'3 5.2
2018-May-08 10:30N 38°33' W 090°15'0 0.6
2018-May-08 10:00N 38°32' W 090°15'0 0.0
2018-May-08 09:31N 38°32' W 090°15'0 0.9
2018-May-08 08:59N 38°33' W 090°15'0 0.2
2018-May-08 08:30N 38°33' W 090°15'0 0.2
2018-May-08 08:01N 38°33' W 090°15'0 0.0
2018-May-08 07:30N 38°33' W 090°15'0 0.4
2018-May-08 07:00N 38°33' W 090°15'0 0.9
2018-May-08 06:30N 38°33' W 090°14'4 5.3
2018-May-08 05:49N 38°36' W 090°12'0 1.3
2018-May-08 05:30N 38°36' W 090°11'0 0.3
2018-May-08 05:00N 38°36' W 090°11'4 3.1
2018-May-08 03:47N 38°33' W 090°14'1 0.5
2018-May-08 02:00N 38°33' W 090°15'0 0.3
2018-May-08 01:31N 38°32' W 090°15'5 9.0
2018-May-08 00:59N 38°36' W 090°11'1 1.3
2018-May-08 00:31N 38°36' W 090°12'4 3.0
2018-May-07 23:13N 38°33' W 090°15'0 0.1
2018-May-07 22:54N 38°33' W 090°15'0 0.1
2018-May-07 22:30N 38°33' W 090°15'1 0.2
2018-May-07 19:18N 38°33' W 090°15'0 0.2
2018-May-07 18:49N 38°33' W 090°14'0 0.0
2018-May-07 15:39N 38°33' W 090°15'0 1.0
2018-May-07 15:09N 38°33' W 090°14'0 1.1
2018-May-07 14:47N 38°33' W 090°14'0 1.8
2018-May-07 14:30N 38°33' W 090°15'0 0.7
2018-May-07 14:00N 38°32' W 090°15'0 0.0
2018-May-07 13:28N 38°32' W 090°15'0 0.8
2018-May-07 12:59N 38°33' W 090°15'0 0.1
2018-May-07 12:29N 38°33' W 090°15'0 0.4
2018-May-07 12:00N 38°33' W 090°15'0 0.1
2018-May-07 10:35N 38°33' W 090°15'0 4.5
2018-May-07 10:30N 38°32' W 090°15'0 0.2
2018-May-07 10:00N 38°32' W 090°15'0 0.0
2018-May-07 09:30N 38°32' W 090°15'1 0.7
2018-May-07 07:31N 38°31' W 090°16'0 0.0
2018-May-07 07:28N 38°31' W 090°16'0 0.1
2018-May-07 04:43N 38°31' W 090°16'0 0.2
2018-May-07 04:20N 38°31' W 090°16'0 0.2
2018-May-07 03:59N 38°31' W 090°16'0 0.2
2018-May-07 03:28N 38°31' W 090°16'1 1.4
2018-May-07 03:00N 38°32' W 090°15'1 1.0
2018-May-07 02:27N 38°31' W 090°16'0 0.1
2018-May-07 01:58N 38°31' W 090°16'0 0.5
2018-May-07 01:09N 38°32' W 090°15'0 0.0
2018-May-07 00:55N 38°32' W 090°15'0 0.3
2018-May-06 23:30N 38°31' W 090°16'0 0.0
2018-May-06 13:20N 38°31' W 090°16'0 0.1
2018-May-06 12:48N 38°31' W 090°16'0 0.2
2018-May-06 12:30N 38°31' W 090°16'0 0.0
2018-May-06 11:57N 38°31' W 090°16'0 0.5
2018-May-06 11:31N 38°32' W 090°16'1 1.7
2018-May-06 10:59N 38°32' W 090°15'0 0.0
2018-May-06 10:30N 38°32' W 090°15'0 0.0
2018-May-06 10:00N 38°32' W 090°15'0 0.3
2018-May-06 09:30N 38°32' W 090°15'0 1.0
2018-May-06 09:00N 38°32' W 090°15'0 0.2
2018-May-06 08:26N 38°32' W 090°15'0 1.0
2018-May-06 08:00N 38°32' W 090°15'1 0.7
2018-May-06 06:17N 38°33' W 090°15'1 4.8
2018-May-06 06:00N 38°32' W 090°15'1 1.5
2018-May-06 05:30N 38°31' W 090°16'0 0.0
2018-May-06 04:59N 38°31' W 090°16'0 0.0
2018-May-06 03:06N 38°31' W 090°16'0 0.2
2018-May-06 02:48N 38°31' W 090°16'0 0.2
2018-May-06 01:21N 38°31' W 090°16'1 0.3
2018-May-05 22:19N 38°32' W 090°15'0 0.0
2018-May-05 21:58N 38°32' W 090°15'0 0.4
2018-May-05 20:42N 38°33' W 090°15'1 2.6
2018-May-05 20:16N 38°32' W 090°15'5 3.2
2018-May-05 18:35N 38°36' W 090°12'1 8.1
2018-May-05 18:27N 38°37' W 090°11'3 6.2
2018-May-05 17:57N 38°40' W 090°11'2 4.0
2018-May-05 17:30N 38°38' W 090°11'  
Track history (hours):
 
Tides and Currents Weather Stations Pressure Air Temp Water Temp Dewpoint Dewpoint Depression Visibility Wind Speed Wind Dir Waves Ship Positions

M/V MiSS Shirley

Owner: Ingram Barge Company LLC, Nashville, TN. More information available from US FCC via Universal Licensing System and Coast Guard Vessel Documentation Center.

Last reported at 2018-May-15 14:14 UTC. Time now 2018-Jun-22 14:53 UTC.
Position N 38°37' W 090°11'.
Warning: this ship's position is 38 days out of date.

Length 20 m; draft 3.1 m.

Type: Towing. MMSI: 367306940.

Date/timePositionNaut miles runAvg speedWind from/ knotsBaromVisibWave heightAir tempDewpointWater temp
2018-May-15 14:14N 38°37' W 090°11'2 7.7
2018-May-15 14:00N 38°39' W 090°11'1 2.8
2018-May-15 13:30N 38°40' W 090°11'1 2.0
2018-May-15 13:00N 38°39' W 090°11'3 5.1
2018-May-15 12:29N 38°37' W 090°11'5 5.2
2018-May-15 11:33N 38°33' W 090°15'0 0.0
2018-May-15 11:30N 38°33' W 090°15'0 0.1
2018-May-15 10:42N 38°33' W 090°15'0 0.2
2018-May-15 10:30N 38°33' W 090°15'0 1.0
2018-May-15 10:00N 38°32' W 090°15'0 0.0
2018-May-15 09:30N 38°32' W 090°15'0 0.8
2018-May-15 09:00N 38°33' W 090°15'3 4.2
2018-May-15 08:20N 38°35' W 090°13'2 5.1
2018-May-15 08:00N 38°36' W 090°11'1 1.4
2018-May-15 07:30N 38°36' W 090°12'4 4.4
2018-May-15 06:34N 38°32' W 090°15'0 4.4
2018-May-15 06:28N 38°32' W 090°15'0 0.2
2018-May-15 05:54N 38°32' W 090°15'4 3.5
2018-May-15 04:39N 38°35' W 090°12'2 7.3
2018-May-15 04:22N 38°37' W 090°11'3 7.3
2018-May-15 04:00N 38°40' W 090°11'0 0.4
2018-May-15 03:30N 38°40' W 090°11'0 0.0
2018-May-15 03:00N 38°40' W 090°11'1 2.0
2018-May-15 02:29N 38°39' W 090°11'1 1.7
2018-May-15 01:58N 38°38' W 090°11'2 3.9
2018-May-15 01:26N 38°36' W 090°11'2 4.1
2018-May-15 00:57N 38°35' W 090°13'2 0.5
2018-May-14 20:19N 38°33' W 090°15'0 0.2
2018-May-14 20:00N 38°33' W 090°15'0 0.6
2018-May-14 19:30N 38°32' W 090°15'5 2.1
2018-May-14 17:12N 38°36' W 090°11'1 4.9
2018-May-14 16:57N 38°37' W 090°11'0 0.3
2018-May-14 16:29N 38°37' W 090°11'3 5.8
2018-May-14 16:00N 38°40' W 090°11'1 2.3
2018-May-14 15:30N 38°39' W 090°11'4 6.7
2018-May-14 14:59N 38°36' W 090°12'3 7.1
2018-May-14 14:30N 38°33' W 090°14'0 0.1
2018-May-14 13:36N 38°33' W 090°14'0 0.5
2018-May-14 13:30N 38°33' W 090°14'0 0.1
2018-May-14 12:59N 38°33' W 090°14'0 0.3
2018-May-14 12:30N 38°33' W 090°14'1 1.2
2018-May-14 11:59N 38°32' W 090°15'0 0.0
2018-May-14 11:30N 38°32' W 090°15'0 0.0
2018-May-14 11:00N 38°32' W 090°15'0 0.8
2018-May-14 10:29N 38°32' W 090°15'0 0.7
2018-May-14 10:00N 38°32' W 090°15'0 0.0
2018-May-14 09:30N 38°32' W 090°15'0 0.6
2018-May-14 08:55N 38°33' W 090°15'0 0.0
2018-May-14 08:30N 38°33' W 090°15'0 0.0
2018-May-14 07:58N 38°33' W 090°15'0 0.0
2018-May-14 07:30N 38°33' W 090°15'0 0.8
2018-May-14 07:00N 38°32' W 090°15'1 0.3
2018-May-14 05:19N 38°33' W 090°15'0 0.0
2018-May-14 05:00N 38°33' W 090°15'0 0.4
2018-May-14 04:14N 38°33' W 090°15'1 3.9
2018-May-14 03:55N 38°32' W 090°15'0 0.2
2018-May-14 03:29N 38°32' W 090°15'0 0.0
2018-May-14 02:14N 38°32' W 090°15'1 5.1
2018-May-14 01:57N 38°33' W 090°14'0 1.0
2018-May-14 01:27N 38°33' W 090°15'4 0.4
2018-May-13 15:38N 38°36' W 090°11'0 0.6
2018-May-13 15:30N 38°36' W 090°11'4 1.6
2018-May-13 12:55N 38°33' W 090°15'0 1.1
2018-May-13 12:28N 38°33' W 090°15'1 1.2
2018-May-13 11:16N 38°31' W 090°16'0 1.1
2018-May-13 10:55N 38°32' W 090°16'1 1.7
2018-May-13 10:30N 38°32' W 090°15'0 0.0
2018-May-13 10:00N 38°32' W 090°15'5 4.7
2018-May-13 09:00N 38°36' W 090°11'4 8.1
2018-May-13 08:30N 38°40' W 090°11'0 0.1
2018-May-13 08:00N 38°40' W 090°11'0 0.2
2018-May-13 07:29N 38°40' W 090°11'0 0.3
2018-May-13 07:00N 38°40' W 090°11'1 2.7
2018-May-13 06:30N 38°39' W 090°11'7 1.2
2018-May-13 00:48N 38°33' W 090°15'0 0.2
2018-May-12 22:22N 38°32' W 090°15'0 0.0
2018-May-12 21:57N 38°32' W 090°15'0 0.0
2018-May-12 21:30N 38°32' W 090°15'1 0.8
2018-May-12 20:34N 38°32' W 090°16'0 0.9
2018-May-12 20:19N 38°32' W 090°15'0 0.0
2018-May-12 19:35N 38°32' W 090°15'0 0.5
2018-May-12 19:30N 38°32' W 090°15'6 5.8
2018-May-12 18:28N 38°37' W 090°11'3 6.1
2018-May-12 17:56N 38°40' W 090°11'0 0.0
2018-May-12 17:30N 38°40' W 090°11'2 3.2
2018-May-12 17:00N 38°39' W 090°11'3 0.8
2018-May-12 13:54N 38°36' W 090°11'3 8.7
2018-May-12 13:30N 38°40' W 090°11'1 1.1
2018-May-12 13:00N 38°39' W 090°11'7 5.4
2018-May-12 11:44N 38°33' W 090°15'0 0.4
2018-May-12 11:29N 38°33' W 090°15'0 0.1
2018-May-12 10:58N 38°33' W 090°15'0 0.1
2018-May-12 06:28N 38°33' W 090°14'3 4.6
2018-May-12 05:50N 38°35' W 090°12'1 3.7
2018-May-12 05:30N 38°36' W 090°11'4 1.6
2018-May-12 03:01N 38°33' W 090°14'0 0.2
2018-May-12 02:59N 38°33' W 090°14'1 0.7
2018-May-12 01:55N 38°33' W 090°15'1 2.6
2018-May-12 01:27N 38°31' W 090°16'6 1.2
2018-May-11 20:36N 38°36' W 090°11'1 8.0
2018-May-11 20:31N 38°37' W 090°11'3 5.3
2018-May-11 20:00N 38°40' W 090°11'1 1.1
2018-May-11 19:27N 38°39' W 090°11'1 0.1
2018-May-11 13:37N 38°38' W 090°11'110.2
2018-May-11 13:30N 38°39' W 090°11'0 0.6
2018-May-11 13:00N 38°39' W 090°11'7 4.9
2018-May-11 11:36N 38°33' W 090°15'2 2.5
2018-May-11 10:56N 38°32' W 090°16'1 0.7
2018-May-11 09:31N 38°32' W 090°15'0 4.2
2018-May-11 09:25N 38°32' W 090°15'0 0.9
2018-May-11 08:58N 38°32' W 090°15'1 0.4
2018-May-11 05:29N 38°33' W 090°15'4 8.2
2018-May-11 04:58N 38°36' W 090°11'0 0.6
2018-May-11 04:30N 38°36' W 090°11'0 0.0
2018-May-11 03:58N 38°36' W 090°11'0 0.0
2018-May-11 03:30N 38°36' W 090°11'0 0.0
2018-May-11 03:01N 38°36' W 090°11'5 3.3
2018-May-11 01:36N 38°33' W 090°15'0 0.6
2018-May-11 01:24N 38°33' W 090°15'0 1.2
2018-May-11 00:59N 38°33' W 090°14'1 1.2
2018-May-11 00:30N 38°33' W 090°15'4 0.5
2018-May-10 16:13N 38°36' W 090°12'310.7
2018-May-10 15:58N 38°39' W 090°11'2 3.3
2018-May-10 15:28N 38°40' W 090°11'3 5.5
2018-May-10 15:00N 38°38' W 090°11'3 5.9
2018-May-10 14:30N 38°35' W 090°13'3 6.1
2018-May-10 13:59N 38°33' W 090°15'1 1.5
2018-May-10 13:30N 38°32' W 090°15'0 0.7
2018-May-10 13:00N 38°32' W 090°15'0 0.0
2018-May-10 12:30N 38°32' W 090°15'0 0.7
2018-May-10 12:00N 38°31' W 090°16'0 0.6
2018-May-10 11:26N 38°32' W 090°15'1 2.1
2018-May-10 11:01N 38°32' W 090°15'0 0.1
2018-May-10 10:30N 38°32' W 090°15'0 0.0
2018-May-10 10:01N 38°32' W 090°15'0 0.0
2018-May-10 09:30N 38°32' W 090°15'1 1.8
2018-May-10 09:01N 38°32' W 090°15'0 0.1
2018-May-10 08:24N 38°32' W 090°15'0 0.2
2018-May-10 08:00N 38°32' W 090°15'0 0.3
2018-May-10 07:30N 38°32' W 090°15'7 1.1
2018-May-10 01:09N 38°37' W 090°11'110.1
2018-May-10 01:00N 38°39' W 090°11'1 1.7
2018-May-10 00:30N 38°40' W 090°11'0 0.8
2018-May-10 00:00N 38°39' W 090°11'3 4.6
2018-May-09 23:25N 38°36' W 090°11'5 0.3
2018-May-09 07:54N 38°33' W 090°15'7 2.9
2018-May-09 05:26N 38°39' W 090°11'0 0.8
2018-May-09 04:56N 38°39' W 090°11'2 4.3
2018-May-09 04:22N 38°36' W 090°11'0 0.2
2018-May-09 03:59N 38°36' W 090°11'5 3.2
2018-May-09 02:34N 38°33' W 090°15'0 0.2
2018-May-09 02:22N 38°33' W 090°15'4 4.1
2018-May-09 01:20N 38°36' W 090°11'3 8.5
2018-May-09 01:00N 38°39' W 090°11'1 1.4
2018-May-09 00:30N 38°40' W 090°11'0 0.0
2018-May-09 00:00N 38°40' W 090°11'2 3.7
2018-May-08 23:30N 38°38' W 090°11'6 4.8
2018-May-08 22:21N 38°33' W 090°15'1 2.0
2018-May-08 22:00N 38°32' W 090°15'0 0.0
2018-May-08 21:30N 38°32' W 090°15'0 0.1
2018-May-08 20:53N 38°32' W 090°15'5 6.6
2018-May-08 20:13N 38°36' W 090°12'3 7.6
2018-May-08 19:50N 38°39' W 090°11'1 2.5
2018-May-08 19:30N 38°40' W 090°11'1 1.1
2018-May-08 19:00N 38°39' W 090°11'1 1.9
2018-May-08 18:20N 38°38' W 090°11'2 5.0
2018-May-08 17:59N 38°36' W 090°12'4 5.0
2018-May-08 17:11N 38°33' W 090°15'1 1.3
2018-May-08 16:41N 38°32' W 090°15'4 1.1
2018-May-08 12:50N 38°36' W 090°12'3 8.7
2018-May-08 12:30N 38°38' W 090°11'0 0.6
2018-May-08 12:00N 38°39' W 090°11'1 2.7
2018-May-08 11:30N 38°37' W 090°11'3 6.2
2018-May-08 11:00N 38°35' W 090°13'3 5.2
2018-May-08 10:30N 38°33' W 090°15'0 0.6
2018-May-08 10:00N 38°32' W 090°15'0 0.0
2018-May-08 09:31N 38°32' W 090°15'0 0.9
2018-May-08 08:59N 38°33' W 090°15'0 0.2
2018-May-08 08:30N 38°33' W 090°15'0 0.2
2018-May-08 08:01N 38°33' W 090°15'0 0.0
2018-May-08 07:30N 38°33' W 090°15'0 0.4
2018-May-08 07:00N 38°33' W 090°15'0 0.9
2018-May-08 06:30N 38°33' W 090°14'4 5.3
2018-May-08 05:49N 38°36' W 090°12'0 1.3
2018-May-08 05:30N 38°36' W 090°11'0 0.3
2018-May-08 05:00N 38°36' W 090°11'4 3.1
2018-May-08 03:47N 38°33' W 090°14'1 0.5
2018-May-08 02:00N 38°33' W 090°15'0 0.3
2018-May-08 01:31N 38°32' W 090°15'5 9.0
2018-May-08 00:59N 38°36' W 090°11'1 1.3
2018-May-08 00:31N 38°36' W 090°12'4 3.0
2018-May-07 23:13N 38°33' W 090°15'0 0.1
2018-May-07 22:54N 38°33' W 090°15'0 0.1
2018-May-07 22:30N 38°33' W 090°15'1 0.2
2018-May-07 19:18N 38°33' W 090°15'0 0.2
2018-May-07 18:49N 38°33' W 090°14'0 0.0
2018-May-07 15:39N 38°33' W 090°15'0 1.0
2018-May-07 15:09N 38°33' W 090°14'0 1.1
2018-May-07 14:47N 38°33' W 090°14'0 1.8
2018-May-07 14:30N 38°33' W 090°15'0 0.7
2018-May-07 14:00N 38°32' W 090°15'0 0.0
2018-May-07 13:28N 38°32' W 090°15'0 0.8
2018-May-07 12:59N 38°33' W 090°15'0 0.1
2018-May-07 12:29N 38°33' W 090°15'0 0.4
2018-May-07 12:00N 38°33' W 090°15'0 0.1
2018-May-07 10:35N 38°33' W 090°15'0 4.5
2018-May-07 10:30N 38°32' W 090°15'0 0.2
2018-May-07 10:00N 38°32' W 090°15'0 0.0
2018-May-07 09:30N 38°32' W 090°15'1 0.7
2018-May-07 07:31N 38°31' W 090°16'0 0.0
2018-May-07 07:28N 38°31' W 090°16'0 0.1
2018-May-07 04:43N 38°31' W 090°16'0 0.2
2018-May-07 04:20N 38°31' W 090°16'0 0.2
2018-May-07 03:59N 38°31' W 090°16'0 0.2
2018-May-07 03:28N 38°31' W 090°16'1 1.4
2018-May-07 03:00N 38°32' W 090°15'1 1.0
2018-May-07 02:27N 38°31' W 090°16'0 0.1
2018-May-07 01:58N 38°31' W 090°16'0 0.5
2018-May-07 01:09N 38°32' W 090°15'0 0.0
2018-May-07 00:55N 38°32' W 090°15'0 0.3
2018-May-06 23:30N 38°31' W 090°16'0 0.0
2018-May-06 13:20N 38°31' W 090°16'0 0.1
2018-May-06 12:48N 38°31' W 090°16'0 0.2
2018-May-06 12:30N 38°31' W 090°16'0 0.0
2018-May-06 11:57N 38°31' W 090°16'0 0.5
2018-May-06 11:31N 38°32' W 090°16'1 1.7
2018-May-06 10:59N 38°32' W 090°15'0 0.0
2018-May-06 10:30N 38°32' W 090°15'0 0.0
2018-May-06 10:00N 38°32' W 090°15'0 0.3
2018-May-06 09:30N 38°32' W 090°15'0 1.0
2018-May-06 09:00N 38°32' W 090°15'0 0.2
2018-May-06 08:26N 38°32' W 090°15'0 1.0
2018-May-06 08:00N 38°32' W 090°15'1 0.7
2018-May-06 06:17N 38°33' W 090°15'1 4.8
2018-May-06 06:00N 38°32' W 090°15'1 1.5
2018-May-06 05:30N 38°31' W 090°16'0 0.0
2018-May-06 04:59N 38°31' W 090°16'0 0.0
2018-May-06 03:06N 38°31' W 090°16'0 0.2
2018-May-06 02:48N 38°31' W 090°16'0 0.2
2018-May-06 01:21N 38°31' W 090°16'1 0.3
2018-May-05 22:19N 38°32' W 090°15'0 0.0
2018-May-05 21:58N 38°32' W 090°15'0 0.4
2018-May-05 20:42N 38°33' W 090°15'1 2.6
2018-May-05 20:16N 38°32' W 090°15'5 3.2
2018-May-05 18:35N 38°36' W 090°12'1 8.1
2018-May-05 18:27N 38°37' W 090°11'3 6.2
2018-May-05 17:57N 38°40' W 090°11'2 4.0
2018-May-05 17:30N 38°38' W 090°11'  

Dump ship's entire track history